sensor_id;sensor_type;location;lat;lon;timestamp;P1;durP1;ratioP1;P2;durP2;ratioP2
10450;SDS011;5273;51.290;6.918;2023-04-24T00:00:38;1.37;;;1.27;;
10450;SDS011;5273;51.290;6.918;2023-04-24T00:03:11;2.40;;;1.40;;
10450;SDS011;5273;51.290;6.918;2023-04-24T00:05:39;0.83;;;0.83;;
10450;SDS011;5273;51.290;6.918;2023-04-24T00:08:06;1.23;;;1.13;;
10450;SDS011;5273;51.290;6.918;2023-04-24T00:10:33;1.27;;;1.10;;
10450;SDS011;5273;51.290;6.918;2023-04-24T00:13:01;1.13;;;1.10;;
10450;SDS011;5273;51.290;6.918;2023-04-24T00:15:28;1.37;;;1.20;;
10450;SDS011;5273;51.290;6.918;2023-04-24T00:17:54;2.37;;;1.33;;
10450;SDS011;5273;51.290;6.918;2023-04-24T00:20:21;3.40;;;1.30;;
10450;SDS011;5273;51.290;6.918;2023-04-24T00:22:48;1.40;;;1.30;;
10450;SDS011;5273;51.290;6.918;2023-04-24T00:25:15;1.10;;;1.10;;
10450;SDS011;5273;51.290;6.918;2023-04-24T00:27:42;1.10;;;1.10;;
10450;SDS011;5273;51.290;6.918;2023-04-24T00:30:11;1.70;;;1.60;;
10450;SDS011;5273;51.290;6.918;2023-04-24T00:32:37;1.80;;;1.50;;
10450;SDS011;5273;51.290;6.918;2023-04-24T00:35:05;1.07;;;1.03;;
10450;SDS011;5273;51.290;6.918;2023-04-24T00:37:32;2.17;;;1.53;;
10450;SDS011;5273;51.290;6.918;2023-04-24T00:39:59;3.47;;;2.03;;
10450;SDS011;5273;51.290;6.918;2023-04-24T00:42:26;1.70;;;1.60;;
10450;SDS011;5273;51.290;6.918;2023-04-24T00:44:53;1.93;;;1.60;;
10450;SDS011;5273;51.290;6.918;2023-04-24T00:47:21;1.90;;;1.47;;
10450;SDS011;5273;51.290;6.918;2023-04-24T00:49:49;1.53;;;1.40;;
10450;SDS011;5273;51.290;6.918;2023-04-24T00:52:16;2.40;;;1.57;;
10450;SDS011;5273;51.290;6.918;2023-04-24T00:54:43;2.03;;;1.50;;
10450;SDS011;5273;51.290;6.918;2023-04-24T00:57:10;2.97;;;1.77;;
10450;SDS011;5273;51.290;6.918;2023-04-24T00:59:38;1.87;;;1.77;;
10450;SDS011;5273;51.290;6.918;2023-04-24T01:02:06;1.70;;;1.60;;
10450;SDS011;5273;51.290;6.918;2023-04-24T01:04:35;2.63;;;1.80;;
10450;SDS011;5273;51.290;6.918;2023-04-24T01:07:02;2.27;;;1.83;;
10450;SDS011;5273;51.290;6.918;2023-04-24T01:09:29;2.73;;;1.83;;
10450;SDS011;5273;51.290;6.918;2023-04-24T01:11:56;2.37;;;1.60;;
10450;SDS011;5273;51.290;6.918;2023-04-24T01:14:24;3.40;;;2.07;;
10450;SDS011;5273;51.290;6.918;2023-04-24T01:16:51;1.87;;;1.77;;
10450;SDS011;5273;51.290;6.918;2023-04-24T01:19:18;2.97;;;2.10;;
10450;SDS011;5273;51.290;6.918;2023-04-24T01:21:46;4.30;;;2.03;;
10450;SDS011;5273;51.290;6.918;2023-04-24T01:24:18;2.13;;;1.87;;
10450;SDS011;5273;51.290;6.918;2023-04-24T01:26:45;3.93;;;1.87;;
10450;SDS011;5273;51.290;6.918;2023-04-24T01:29:12;2.00;;;1.90;;
10450;SDS011;5273;51.290;6.918;2023-04-24T01:31:39;3.43;;;2.30;;
10450;SDS011;5273;51.290;6.918;2023-04-24T01:34:06;3.37;;;2.90;;
10450;SDS011;5273;51.290;6.918;2023-04-24T01:36:34;4.03;;;3.37;;
10450;SDS011;5273;51.290;6.918;2023-04-24T01:39:01;3.73;;;3.30;;
10450;SDS011;5273;51.290;6.918;2023-04-24T01:41:29;5.53;;;3.50;;
10450;SDS011;5273;51.290;6.918;2023-04-24T01:43:56;6.63;;;4.17;;
10450;SDS011;5273;51.290;6.918;2023-04-24T01:46:24;6.80;;;4.20;;
10450;SDS011;5273;51.290;6.918;2023-04-24T01:48:51;4.47;;;4.07;;
10450;SDS011;5273;51.290;6.918;2023-04-24T01:51:18;9.33;;;4.53;;
10450;SDS011;5273;51.290;6.918;2023-04-24T01:53:45;6.90;;;4.67;;
10450;SDS011;5273;51.290;6.918;2023-04-24T01:56:12;10.90;;;5.17;;
10450;SDS011;5273;51.290;6.918;2023-04-24T01:58:41;10.90;;;5.33;;
10450;SDS011;5273;51.290;6.918;2023-04-24T02:01:08;7.47;;;5.17;;
10450;SDS011;5273;51.290;6.918;2023-04-24T02:03:36;10.47;;;4.93;;
10450;SDS011;5273;51.290;6.918;2023-04-24T02:06:02;7.27;;;5.43;;
10450;SDS011;5273;51.290;6.918;2023-04-24T02:08:29;8.20;;;5.90;;
10450;SDS011;5273;51.290;6.918;2023-04-24T02:10:56;9.20;;;5.63;;
10450;SDS011;5273;51.290;6.918;2023-04-24T02:13:23;8.83;;;5.53;;
10450;SDS011;5273;51.290;6.918;2023-04-24T02:15:51;7.33;;;6.13;;
10450;SDS011;5273;51.290;6.918;2023-04-24T02:18:18;8.23;;;6.10;;
10450;SDS011;5273;51.290;6.918;2023-04-24T02:20:45;7.73;;;6.83;;
10450;SDS011;5273;51.290;6.918;2023-04-24T02:23:12;9.27;;;6.97;;
10450;SDS011;5273;51.290;6.918;2023-04-24T02:25:40;7.50;;;6.33;;
10450;SDS011;5273;51.290;6.918;2023-04-24T02:28:07;10.90;;;6.50;;
10450;SDS011;5273;51.290;6.918;2023-04-24T02:30:33;9.83;;;5.97;;
10450;SDS011;5273;51.290;6.918;2023-04-24T02:33:02;7.57;;;5.63;;
10450;SDS011;5273;51.290;6.918;2023-04-24T02:35:29;14.00;;;6.67;;
10450;SDS011;5273;51.290;6.918;2023-04-24T02:37:56;7.80;;;5.87;;
10450;SDS011;5273;51.290;6.918;2023-04-24T02:40:23;7.43;;;6.17;;
10450;SDS011;5273;51.290;6.918;2023-04-24T02:42:50;11.83;;;6.23;;
10450;SDS011;5273;51.290;6.918;2023-04-24T02:45:16;12.00;;;6.20;;
10450;SDS011;5273;51.290;6.918;2023-04-24T02:47:43;10.43;;;6.40;;
10450;SDS011;5273;51.290;6.918;2023-04-24T02:50:12;10.00;;;6.67;;
10450;SDS011;5273;51.290;6.918;2023-04-24T02:52:38;10.87;;;6.80;;
10450;SDS011;5273;51.290;6.918;2023-04-24T02:55:05;8.03;;;6.10;;
10450;SDS011;5273;51.290;6.918;2023-04-24T02:57:33;8.53;;;6.60;;
10450;SDS011;5273;51.290;6.918;2023-04-24T02:59:59;12.57;;;7.30;;
10450;SDS011;5273;51.290;6.918;2023-04-24T03:02:26;13.40;;;7.13;;
10450;SDS011;5273;51.290;6.918;2023-04-24T03:04:53;11.00;;;7.80;;
10450;SDS011;5273;51.290;6.918;2023-04-24T03:07:21;11.50;;;7.47;;
10450;SDS011;5273;51.290;6.918;2023-04-24T03:09:49;10.60;;;7.67;;
10450;SDS011;5273;51.290;6.918;2023-04-24T03:12:15;10.93;;;7.63;;
10450;SDS011;5273;51.290;6.918;2023-04-24T03:14:43;13.07;;;8.13;;
10450;SDS011;5273;51.290;6.918;2023-04-24T03:17:09;11.77;;;7.73;;
10450;SDS011;5273;51.290;6.918;2023-04-24T03:19:36;13.30;;;7.57;;
10450;SDS011;5273;51.290;6.918;2023-04-24T03:22:03;10.40;;;7.97;;
10450;SDS011;5273;51.290;6.918;2023-04-24T03:24:32;15.10;;;7.80;;
10450;SDS011;5273;51.290;6.918;2023-04-24T03:26:59;15.07;;;8.37;;
10450;SDS011;5273;51.290;6.918;2023-04-24T03:29:25;13.03;;;7.70;;
10450;SDS011;5273;51.290;6.918;2023-04-24T03:31:52;12.13;;;7.60;;
10450;SDS011;5273;51.290;6.918;2023-04-24T03:34:19;11.97;;;7.80;;
10450;SDS011;5273;51.290;6.918;2023-04-24T03:36:46;11.37;;;7.57;;
10450;SDS011;5273;51.290;6.918;2023-04-24T03:39:13;11.23;;;7.70;;
10450;SDS011;5273;51.290;6.918;2023-04-24T03:41:41;12.20;;;7.37;;
10450;SDS011;5273;51.290;6.918;2023-04-24T03:44:08;11.83;;;7.67;;
10450;SDS011;5273;51.290;6.918;2023-04-24T03:46:35;9.37;;;7.70;;
10450;SDS011;5273;51.290;6.918;2023-04-24T03:49:01;12.93;;;7.70;;
10450;SDS011;5273;51.290;6.918;2023-04-24T03:51:28;9.27;;;6.97;;
10450;SDS011;5273;51.290;6.918;2023-04-24T03:53:55;8.30;;;6.40;;
10450;SDS011;5273;51.290;6.918;2023-04-24T03:56:22;10.83;;;7.50;;
10450;SDS011;5273;51.290;6.918;2023-04-24T03:58:50;13.10;;;8.47;;
10450;SDS011;5273;51.290;6.918;2023-04-24T04:01:17;10.70;;;7.80;;
10450;SDS011;5273;51.290;6.918;2023-04-24T04:03:45;11.43;;;7.20;;
10450;SDS011;5273;51.290;6.918;2023-04-24T04:06:12;14.33;;;7.73;;
10450;SDS011;5273;51.290;6.918;2023-04-24T04:08:39;14.37;;;8.27;;
10450;SDS011;5273;51.290;6.918;2023-04-24T04:11:06;14.13;;;7.50;;
10450;SDS011;5273;51.290;6.918;2023-04-24T04:13:33;12.50;;;7.47;;
10450;SDS011;5273;51.290;6.918;2023-04-24T04:16:01;11.53;;;7.67;;
10450;SDS011;5273;51.290;6.918;2023-04-24T04:18:28;15.87;;;8.47;;
10450;SDS011;5273;51.290;6.918;2023-04-24T04:20:54;12.57;;;7.77;;
10450;SDS011;5273;51.290;6.918;2023-04-24T04:23:22;16.97;;;7.97;;
10450;SDS011;5273;51.290;6.918;2023-04-24T04:25:48;13.43;;;7.47;;
10450;SDS011;5273;51.290;6.918;2023-04-24T04:28:16;9.20;;;7.13;;
10450;SDS011;5273;51.290;6.918;2023-04-24T04:30:44;13.73;;;7.87;;
10450;SDS011;5273;51.290;6.918;2023-04-24T04:33:13;13.93;;;7.33;;
10450;SDS011;5273;51.290;6.918;2023-04-24T04:35:41;13.13;;;7.50;;
10450;SDS011;5273;51.290;6.918;2023-04-24T04:38:08;10.27;;;7.10;;
10450;SDS011;5273;51.290;6.918;2023-04-24T04:40:35;9.33;;;7.30;;
10450;SDS011;5273;51.290;6.918;2023-04-24T04:43:03;11.73;;;7.50;;
10450;SDS011;5273;51.290;6.918;2023-04-24T04:45:29;7.73;;;6.87;;
10450;SDS011;5273;51.290;6.918;2023-04-24T04:47:57;11.67;;;7.10;;
10450;SDS011;5273;51.290;6.918;2023-04-24T04:50:27;8.53;;;7.00;;
10450;SDS011;5273;51.290;6.918;2023-04-24T04:52:53;10.47;;;6.80;;
10450;SDS011;5273;51.290;6.918;2023-04-24T04:55:20;10.57;;;7.00;;
10450;SDS011;5273;51.290;6.918;2023-04-24T04:57:47;11.77;;;6.73;;
10450;SDS011;5273;51.290;6.918;2023-04-24T05:00:14;13.53;;;7.27;;
10450;SDS011;5273;51.290;6.918;2023-04-24T05:02:41;14.03;;;7.10;;
10450;SDS011;5273;51.290;6.918;2023-04-24T05:05:08;13.33;;;6.97;;
10450;SDS011;5273;51.290;6.918;2023-04-24T05:07:36;9.33;;;7.30;;
10450;SDS011;5273;51.290;6.918;2023-04-24T05:10:03;10.37;;;7.67;;
10450;SDS011;5273;51.290;6.918;2023-04-24T05:12:31;10.67;;;7.53;;
10450;SDS011;5273;51.290;6.918;2023-04-24T05:14:58;15.27;;;8.33;;
10450;SDS011;5273;51.290;6.918;2023-04-24T05:17:24;13.27;;;8.13;;
10450;SDS011;5273;51.290;6.918;2023-04-24T05:19:51;11.23;;;8.43;;
10450;SDS011;5273;51.290;6.918;2023-04-24T05:22:18;13.20;;;9.00;;
10450;SDS011;5273;51.290;6.918;2023-04-24T05:24:47;10.93;;;8.30;;
10450;SDS011;5273;51.290;6.918;2023-04-24T05:27:14;11.77;;;8.80;;
10450;SDS011;5273;51.290;6.918;2023-04-24T05:29:41;13.57;;;8.07;;
10450;SDS011;5273;51.290;6.918;2023-04-24T05:32:08;10.20;;;7.97;;
10450;SDS011;5273;51.290;6.918;2023-04-24T05:34:35;10.53;;;7.60;;
10450;SDS011;5273;51.290;6.918;2023-04-24T05:37:02;9.20;;;7.10;;
10450;SDS011;5273;51.290;6.918;2023-04-24T05:39:33;10.53;;;7.50;;
10450;SDS011;5273;51.290;6.918;2023-04-24T05:42:01;9.80;;;7.40;;
10450;SDS011;5273;51.290;6.918;2023-04-24T05:44:29;11.37;;;7.57;;
10450;SDS011;5273;51.290;6.918;2023-04-24T05:46:56;10.40;;;7.00;;
10450;SDS011;5273;51.290;6.918;2023-04-24T05:49:23;9.77;;;7.20;;
10450;SDS011;5273;51.290;6.918;2023-04-24T05:51:50;10.23;;;6.63;;
10450;SDS011;5273;51.290;6.918;2023-04-24T05:54:17;8.50;;;7.40;;
10450;SDS011;5273;51.290;6.918;2023-04-24T05:56:43;8.07;;;5.97;;
10450;SDS011;5273;51.290;6.918;2023-04-24T05:59:12;12.43;;;7.07;;
10450;SDS011;5273;51.290;6.918;2023-04-24T06:01:39;7.93;;;6.47;;
10450;SDS011;5273;51.290;6.918;2023-04-24T06:04:06;10.53;;;7.00;;
10450;SDS011;5273;51.290;6.918;2023-04-24T06:06:34;9.50;;;7.03;;
10450;SDS011;5273;51.290;6.918;2023-04-24T06:09:01;9.13;;;6.73;;
10450;SDS011;5273;51.290;6.918;2023-04-24T06:11:28;9.07;;;6.17;;
10450;SDS011;5273;51.290;6.918;2023-04-24T06:13:55;9.53;;;6.97;;
10450;SDS011;5273;51.290;6.918;2023-04-24T06:16:23;9.37;;;7.40;;
10450;SDS011;5273;51.290;6.918;2023-04-24T06:18:50;8.73;;;7.40;;
10450;SDS011;5273;51.290;6.918;2023-04-24T06:21:17;10.90;;;7.93;;
10450;SDS011;5273;51.290;6.918;2023-04-24T06:23:44;11.70;;;7.70;;
10450;SDS011;5273;51.290;6.918;2023-04-24T06:26:11;8.00;;;6.97;;
10450;SDS011;5273;51.290;6.918;2023-04-24T06:28:38;10.27;;;6.93;;
10450;SDS011;5273;51.290;6.918;2023-04-24T06:31:05;11.57;;;7.10;;
10450;SDS011;5273;51.290;6.918;2023-04-24T06:33:33;8.77;;;6.57;;
10450;SDS011;5273;51.290;6.918;2023-04-24T06:36:00;8.23;;;6.47;;
10450;SDS011;5273;51.290;6.918;2023-04-24T06:38:29;9.63;;;6.27;;
10450;SDS011;5273;51.290;6.918;2023-04-24T06:40:56;10.27;;;6.37;;
10450;SDS011;5273;51.290;6.918;2023-04-24T06:43:22;7.37;;;5.67;;
10450;SDS011;5273;51.290;6.918;2023-04-24T06:45:49;9.60;;;5.80;;
10450;SDS011;5273;51.290;6.918;2023-04-24T06:48:16;7.80;;;5.87;;
10450;SDS011;5273;51.290;6.918;2023-04-24T06:50:44;7.67;;;5.00;;
10450;SDS011;5273;51.290;6.918;2023-04-24T06:53:11;5.73;;;4.87;;
10450;SDS011;5273;51.290;6.918;2023-04-24T06:55:39;7.00;;;5.13;;
10450;SDS011;5273;51.290;6.918;2023-04-24T06:58:06;7.30;;;5.20;;
10450;SDS011;5273;51.290;6.918;2023-04-24T07:00:33;6.80;;;5.07;;
10450;SDS011;5273;51.290;6.918;2023-04-24T07:03:00;7.33;;;5.23;;
10450;SDS011;5273;51.290;6.918;2023-04-24T07:05:27;6.23;;;4.37;;
10450;SDS011;5273;51.290;6.918;2023-04-24T07:07:56;9.93;;;5.57;;
10450;SDS011;5273;51.290;6.918;2023-04-24T07:10:23;6.53;;;5.33;;
10450;SDS011;5273;51.290;6.918;2023-04-24T07:12:52;7.03;;;5.43;;
10450;SDS011;5273;51.290;6.918;2023-04-24T07:15:19;5.37;;;4.07;;
10450;SDS011;5273;51.290;6.918;2023-04-24T07:17:45;4.33;;;3.07;;
10450;SDS011;5273;51.290;6.918;2023-04-24T07:20:12;3.80;;;3.40;;
10450;SDS011;5273;51.290;6.918;2023-04-24T07:22:40;4.77;;;3.17;;
10450;SDS011;5273;51.290;6.918;2023-04-24T07:25:09;3.50;;;3.10;;
10450;SDS011;5273;51.290;6.918;2023-04-24T07:27:35;4.67;;;3.60;;
10450;SDS011;5273;51.290;6.918;2023-04-24T07:30:02;4.37;;;3.60;;
10450;SDS011;5273;51.290;6.918;2023-04-24T07:32:30;5.43;;;3.70;;
10450;SDS011;5273;51.290;6.918;2023-04-24T07:34:57;3.70;;;3.30;;
10450;SDS011;5273;51.290;6.918;2023-04-24T07:37:23;3.53;;;2.43;;
10450;SDS011;5273;51.290;6.918;2023-04-24T07:39:50;3.63;;;2.37;;
10450;SDS011;5273;51.290;6.918;2023-04-24T07:42:19;3.13;;;2.00;;
10450;SDS011;5273;51.290;6.918;2023-04-24T07:44:45;2.60;;;1.60;;
10450;SDS011;5273;51.290;6.918;2023-04-24T07:47:13;1.60;;;1.50;;
10450;SDS011;5273;51.290;6.918;2023-04-24T07:49:40;0.80;;;0.80;;
10450;SDS011;5273;51.290;6.918;2023-04-24T07:52:07;0.70;;;0.70;;
10450;SDS011;5273;51.290;6.918;2023-04-24T07:54:34;0.73;;;0.73;;
10450;SDS011;5273;51.290;6.918;2023-04-24T07:57:02;1.50;;;1.10;;
10450;SDS011;5273;51.290;6.918;2023-04-24T07:59:30;4.60;;;1.20;;
10450;SDS011;5273;51.290;6.918;2023-04-24T08:01:57;0.70;;;0.70;;
10450;SDS011;5273;51.290;6.918;2023-04-24T08:04:25;1.40;;;0.70;;
10450;SDS011;5273;51.290;6.918;2023-04-24T08:06:52;0.60;;;0.60;;
10450;SDS011;5273;51.290;6.918;2023-04-24T08:09:19;1.00;;;0.90;;
10450;SDS011;5273;51.290;6.918;2023-04-24T08:11:46;0.60;;;0.60;;
10450;SDS011;5273;51.290;6.918;2023-04-24T08:14:13;1.73;;;0.70;;
10450;SDS011;5273;51.290;6.918;2023-04-24T08:16:41;2.17;;;0.90;;
10450;SDS011;5273;51.290;6.918;2023-04-24T08:19:08;0.80;;;0.80;;
10450;SDS011;5273;51.290;6.918;2023-04-24T08:21:34;0.90;;;0.90;;
10450;SDS011;5273;51.290;6.918;2023-04-24T08:24:01;0.90;;;0.80;;
10450;SDS011;5273;51.290;6.918;2023-04-24T08:26:30;1.17;;;1.07;;
10450;SDS011;5273;51.290;6.918;2023-04-24T08:28:57;0.90;;;0.90;;
10450;SDS011;5273;51.290;6.918;2023-04-24T08:31:24;1.40;;;1.00;;
10450;SDS011;5273;51.290;6.918;2023-04-24T08:33:52;1.50;;;1.03;;
10450;SDS011;5273;51.290;6.918;2023-04-24T08:36:19;0.80;;;0.80;;
10450;SDS011;5273;51.290;6.918;2023-04-24T08:38:46;1.27;;;1.17;;
10450;SDS011;5273;51.290;6.918;2023-04-24T08:41:13;0.80;;;0.80;;
10450;SDS011;5273;51.290;6.918;2023-04-24T08:43:41;1.60;;;1.23;;
10450;SDS011;5273;51.290;6.918;2023-04-24T08:46:08;1.23;;;0.90;;
10450;SDS011;5273;51.290;6.918;2023-04-24T08:48:35;1.60;;;1.00;;
10450;SDS011;5273;51.290;6.918;2023-04-24T08:51:04;0.90;;;0.80;;
10450;SDS011;5273;51.290;6.918;2023-04-24T08:53:33;0.70;;;0.70;;
10450;SDS011;5273;51.290;6.918;2023-04-24T08:56:01;0.70;;;0.70;;
10450;SDS011;5273;51.290;6.918;2023-04-24T08:58:29;0.93;;;0.90;;
10450;SDS011;5273;51.290;6.918;2023-04-24T09:00:56;1.00;;;1.00;;
10450;SDS011;5273;51.290;6.918;2023-04-24T09:03:24;1.30;;;1.13;;
10450;SDS011;5273;51.290;6.918;2023-04-24T09:05:52;1.20;;;1.00;;
10450;SDS011;5273;51.290;6.918;2023-04-24T09:08:22;2.10;;;1.23;;
10450;SDS011;5273;51.290;6.918;2023-04-24T09:10:51;1.53;;;1.43;;
10450;SDS011;5273;51.290;6.918;2023-04-24T09:13:18;3.50;;;2.10;;
10450;SDS011;5273;51.290;6.918;2023-04-24T09:15:46;2.47;;;2.20;;
10450;SDS011;5273;51.290;6.918;2023-04-24T09:18:13;4.47;;;2.50;;
10450;SDS011;5273;51.290;6.918;2023-04-24T09:20:59;2.60;;;2.40;;
10450;SDS011;5273;51.290;6.918;2023-04-24T09:23:29;3.10;;;2.30;;
10450;SDS011;5273;51.290;6.918;2023-04-24T09:25:57;4.10;;;2.80;;
10450;SDS011;5273;51.290;6.918;2023-04-24T09:28:25;4.00;;;3.50;;
10450;SDS011;5273;51.290;6.918;2023-04-24T09:31:01;7.50;;;4.23;;
10450;SDS011;5273;51.290;6.918;2023-04-24T09:33:29;5.17;;;3.60;;
10450;SDS011;5273;51.290;6.918;2023-04-24T09:35:56;7.00;;;3.50;;
10450;SDS011;5273;51.290;6.918;2023-04-24T09:38:31;3.80;;;3.50;;
10450;SDS011;5273;51.290;6.918;2023-04-24T09:40:59;4.33;;;3.53;;
10450;SDS011;5273;51.290;6.918;2023-04-24T09:43:28;4.70;;;3.97;;
10450;SDS011;5273;51.290;6.918;2023-04-24T09:45:55;3.87;;;2.90;;
10450;SDS011;5273;51.290;6.918;2023-04-24T09:48:33;4.47;;;3.40;;
10450;SDS011;5273;51.290;6.918;2023-04-24T09:51:01;4.97;;;3.63;;
10450;SDS011;5273;51.290;6.918;2023-04-24T09:53:29;6.07;;;3.70;;
10450;SDS011;5273;51.290;6.918;2023-04-24T09:56:01;5.10;;;3.57;;
10450;SDS011;5273;51.290;6.918;2023-04-24T09:58:32;8.73;;;4.60;;
10450;SDS011;5273;51.290;6.918;2023-04-24T10:01:01;5.10;;;4.13;;
10450;SDS011;5273;51.290;6.918;2023-04-24T10:03:29;6.73;;;4.13;;
10450;SDS011;5273;51.290;6.918;2023-04-24T10:05:58;12.17;;;4.90;;
10450;SDS011;5273;51.290;6.918;2023-04-24T10:08:25;7.57;;;4.20;;
10450;SDS011;5273;51.290;6.918;2023-04-24T10:10:54;7.33;;;4.37;;
10450;SDS011;5273;51.290;6.918;2023-04-24T10:13:20;8.40;;;4.50;;
10450;SDS011;5273;51.290;6.918;2023-04-24T10:15:47;10.77;;;5.63;;
10450;SDS011;5273;51.290;6.918;2023-04-24T10:18:16;7.97;;;3.87;;
10450;SDS011;5273;51.290;6.918;2023-04-24T10:20:42;6.80;;;3.70;;
10450;SDS011;5273;51.290;6.918;2023-04-24T10:23:09;7.23;;;4.00;;
10450;SDS011;5273;51.290;6.918;2023-04-24T10:25:38;7.80;;;4.40;;
10450;SDS011;5273;51.290;6.918;2023-04-24T10:28:06;5.60;;;3.20;;
10450;SDS011;5273;51.290;6.918;2023-04-24T10:30:33;5.13;;;3.17;;
10450;SDS011;5273;51.290;6.918;2023-04-24T10:33:01;8.23;;;3.50;;
10450;SDS011;5273;51.290;6.918;2023-04-24T10:35:30;4.17;;;3.20;;
10450;SDS011;5273;51.290;6.918;2023-04-24T10:37:59;7.77;;;3.47;;
10450;SDS011;5273;51.290;6.918;2023-04-24T10:40:32;7.70;;;3.10;;
10450;SDS011;5273;51.290;6.918;2023-04-24T10:43:01;5.63;;;3.27;;
10450;SDS011;5273;51.290;6.918;2023-04-24T10:45:32;6.77;;;2.83;;
10450;SDS011;5273;51.290;6.918;2023-04-24T10:48:01;9.03;;;3.33;;
10450;SDS011;5273;51.290;6.918;2023-04-24T10:50:28;6.23;;;3.20;;
10450;SDS011;5273;51.290;6.918;2023-04-24T10:53:11;8.23;;;2.83;;
10450;SDS011;5273;51.290;6.918;2023-04-24T10:55:40;7.90;;;3.80;;
10450;SDS011;5273;51.290;6.918;2023-04-24T10:58:09;9.57;;;3.13;;
10450;SDS011;5273;51.290;6.918;2023-04-24T11:00:38;11.77;;;3.53;;
10450;SDS011;5273;51.290;6.918;2023-04-24T11:03:06;7.57;;;3.47;;
10450;SDS011;5273;51.290;6.918;2023-04-24T11:05:48;7.97;;;3.27;;
10450;SDS011;5273;51.290;6.918;2023-04-24T11:08:21;10.53;;;3.83;;
10450;SDS011;5273;51.290;6.918;2023-04-24T11:10:54;9.83;;;3.70;;
10450;SDS011;5273;51.290;6.918;2023-04-24T11:13:27;7.57;;;3.93;;
10450;SDS011;5273;51.290;6.918;2023-04-24T11:16:16;10.87;;;3.80;;
10450;SDS011;5273;51.290;6.918;2023-04-24T11:18:50;7.73;;;4.00;;
10450;SDS011;5273;51.290;6.918;2023-04-24T11:21:19;6.63;;;4.70;;
10450;SDS011;5273;51.290;6.918;2023-04-24T11:23:46;10.07;;;4.40;;
10450;SDS011;5273;51.290;6.918;2023-04-24T11:26:17;8.20;;;4.13;;
10450;SDS011;5273;51.290;6.918;2023-04-24T11:28:45;9.37;;;4.77;;
10450;SDS011;5273;51.290;6.918;2023-04-24T11:34:07;13.07;;;3.50;;
10450;SDS011;5273;51.290;6.918;2023-04-24T11:36:35;8.27;;;3.83;;
10450;SDS011;5273;51.290;6.918;2023-04-24T11:39:03;13.27;;;3.83;;
10450;SDS011;5273;51.290;6.918;2023-04-24T11:41:30;9.40;;;3.37;;
10450;SDS011;5273;51.290;6.918;2023-04-24T11:43:57;9.90;;;3.27;;
10450;SDS011;5273;51.290;6.918;2023-04-24T11:46:27;8.97;;;3.27;;
10450;SDS011;5273;51.290;6.918;2023-04-24T11:48:56;5.37;;;3.00;;
10450;SDS011;5273;51.290;6.918;2023-04-24T11:51:23;10.27;;;3.30;;
10450;SDS011;5273;51.290;6.918;2023-04-24T11:53:51;5.60;;;2.97;;
10450;SDS011;5273;51.290;6.918;2023-04-24T11:56:19;6.87;;;2.70;;
10450;SDS011;5273;51.290;6.918;2023-04-24T11:58:47;7.10;;;3.20;;
10450;SDS011;5273;51.290;6.918;2023-04-24T12:01:14;8.50;;;3.37;;
10450;SDS011;5273;51.290;6.918;2023-04-24T12:03:41;6.77;;;2.93;;
10450;SDS011;5273;51.290;6.918;2023-04-24T12:06:13;7.93;;;3.00;;
10450;SDS011;5273;51.290;6.918;2023-04-24T12:08:39;6.87;;;3.17;;
10450;SDS011;5273;51.290;6.918;2023-04-24T12:11:07;6.40;;;3.07;;
10450;SDS011;5273;51.290;6.918;2023-04-24T12:13:34;8.50;;;3.30;;
10450;SDS011;5273;51.290;6.918;2023-04-24T12:16:01;10.30;;;3.20;;
10450;SDS011;5273;51.290;6.918;2023-04-24T12:18:29;5.43;;;2.73;;
10450;SDS011;5273;51.290;6.918;2023-04-24T12:23:42;7.20;;;2.77;;
10450;SDS011;5273;51.290;6.918;2023-04-24T12:26:10;6.53;;;2.23;;
10450;SDS011;5273;51.290;6.918;2023-04-24T12:28:37;5.93;;;2.37;;
10450;SDS011;5273;51.290;6.918;2023-04-24T12:31:05;4.80;;;2.57;;
10450;SDS011;5273;51.290;6.918;2023-04-24T12:33:33;4.93;;;2.40;;
10450;SDS011;5273;51.290;6.918;2023-04-24T12:36:01;5.67;;;2.40;;
10450;SDS011;5273;51.290;6.918;2023-04-24T12:38:30;6.47;;;2.67;;
10450;SDS011;5273;51.290;6.918;2023-04-24T12:41:06;6.10;;;2.10;;
10450;SDS011;5273;51.290;6.918;2023-04-24T12:43:34;6.13;;;2.50;;
10450;SDS011;5273;51.290;6.918;2023-04-24T12:46:01;4.40;;;2.20;;
10450;SDS011;5273;51.290;6.918;2023-04-24T12:48:28;5.53;;;1.90;;
10450;SDS011;5273;51.290;6.918;2023-04-24T12:50:56;4.33;;;2.03;;
10450;SDS011;5273;51.290;6.918;2023-04-24T12:53:26;2.77;;;2.07;;
10450;SDS011;5273;51.290;6.918;2023-04-24T12:55:55;4.68;;;2.00;;
10450;SDS011;5273;51.290;6.918;2023-04-24T12:58:23;4.73;;;2.83;;
10450;SDS011;5273;51.290;6.918;2023-04-24T13:00:50;3.70;;;1.80;;
10450;SDS011;5273;51.290;6.918;2023-04-24T13:03:17;3.13;;;1.80;;
10450;SDS011;5273;51.290;6.918;2023-04-24T13:05:44;2.08;;;1.35;;
10450;SDS011;5273;51.290;6.918;2023-04-24T13:08:11;5.60;;;1.98;;
10450;SDS011;5273;51.290;6.918;2023-04-24T13:10:39;4.43;;;1.60;;
10450;SDS011;5273;51.290;6.918;2023-04-24T13:13:07;3.78;;;1.55;;
10450;SDS011;5273;51.290;6.918;2023-04-24T13:15:35;2.88;;;1.55;;
10450;SDS011;5273;51.290;6.918;2023-04-24T13:18:01;3.60;;;1.45;;
10450;SDS011;5273;51.290;6.918;2023-04-24T13:20:28;1.83;;;1.30;;
10450;SDS011;5273;51.290;6.918;2023-04-24T13:22:55;5.03;;;1.33;;
10450;SDS011;5273;51.290;6.918;2023-04-24T13:25:22;4.00;;;1.35;;
10450;SDS011;5273;51.290;6.918;2023-04-24T13:27:50;1.77;;;1.30;;
10450;SDS011;5273;51.290;6.918;2023-04-24T13:30:18;3.78;;;1.40;;
10450;SDS011;5273;51.290;6.918;2023-04-24T13:32:45;3.22;;;1.35;;
10450;SDS011;5273;51.290;6.918;2023-04-24T13:35:12;3.22;;;1.38;;
10450;SDS011;5273;51.290;6.918;2023-04-24T13:37:38;3.40;;;1.48;;
10450;SDS011;5273;51.290;6.918;2023-04-24T13:40:06;3.38;;;1.55;;
10450;SDS011;5273;51.290;6.918;2023-04-24T13:42:33;5.15;;;1.38;;
10450;SDS011;5273;51.290;6.918;2023-04-24T13:45:00;1.73;;;1.15;;
10450;SDS011;5273;51.290;6.918;2023-04-24T13:47:29;3.03;;;1.20;;
10450;SDS011;5273;51.290;6.918;2023-04-24T13:49:56;2.55;;;1.35;;
10450;SDS011;5273;51.290;6.918;2023-04-24T13:52:23;1.50;;;1.17;;
10450;SDS011;5273;51.290;6.918;2023-04-24T13:54:50;3.35;;;1.48;;
10450;SDS011;5273;51.290;6.918;2023-04-24T13:57:17;2.78;;;0.95;;
10450;SDS011;5273;51.290;6.918;2023-04-24T13:59:43;2.72;;;1.70;;
10450;SDS011;5273;51.290;6.918;2023-04-24T14:02:11;2.38;;;1.10;;
10450;SDS011;5273;51.290;6.918;2023-04-24T14:04:39;4.32;;;1.45;;
10450;SDS011;5273;51.290;6.918;2023-04-24T14:07:06;2.22;;;1.30;;
10450;SDS011;5273;51.290;6.918;2023-04-24T14:09:33;3.33;;;1.42;;
10450;SDS011;5273;51.290;6.918;2023-04-24T14:12:00;2.08;;;1.27;;
10450;SDS011;5273;51.290;6.918;2023-04-24T14:14:28;3.33;;;1.20;;
10450;SDS011;5273;51.290;6.918;2023-04-24T14:16:55;4.80;;;1.35;;
10450;SDS011;5273;51.290;6.918;2023-04-24T14:19:22;3.40;;;1.02;;
10450;SDS011;5273;51.290;6.918;2023-04-24T14:21:50;4.10;;;1.52;;
10450;SDS011;5273;51.290;6.918;2023-04-24T14:24:17;2.35;;;1.52;;
10450;SDS011;5273;51.290;6.918;2023-04-24T14:26:44;1.30;;;1.20;;
10450;SDS011;5273;51.290;6.918;2023-04-24T14:29:11;6.57;;;1.75;;
10450;SDS011;5273;51.290;6.918;2023-04-24T14:31:38;2.42;;;1.35;;
10450;SDS011;5273;51.290;6.918;2023-04-24T14:34:05;2.07;;;1.17;;
10450;SDS011;5273;51.290;6.918;2023-04-24T14:36:32;3.45;;;1.50;;
10450;SDS011;5273;51.290;6.918;2023-04-24T14:39:00;3.00;;;1.48;;
10450;SDS011;5273;51.290;6.918;2023-04-24T14:41:31;3.20;;;1.30;;
10450;SDS011;5273;51.290;6.918;2023-04-24T14:44:00;2.45;;;1.55;;
10450;SDS011;5273;51.290;6.918;2023-04-24T14:46:27;6.00;;;1.60;;
10450;SDS011;5273;51.290;6.918;2023-04-24T14:48:54;1.60;;;1.10;;
10450;SDS011;5273;51.290;6.918;2023-04-24T14:51:21;2.50;;;1.30;;
10450;SDS011;5273;51.290;6.918;2023-04-24T14:53:47;2.50;;;1.20;;
10450;SDS011;5273;51.290;6.918;2023-04-24T14:56:16;2.80;;;1.50;;
10450;SDS011;5273;51.290;6.918;2023-04-24T14:58:42;2.42;;;1.45;;
10450;SDS011;5273;51.290;6.918;2023-04-24T15:01:10;2.97;;;1.38;;
10450;SDS011;5273;51.290;6.918;2023-04-24T15:03:37;2.33;;;1.48;;
10450;SDS011;5273;51.290;6.918;2023-04-24T15:06:04;3.17;;;1.67;;